sensor_id;sensor_type;location;lat;lon;timestamp;temperature;humidity
34644;DHT22;26931;43.498;-1.506;2023-02-28T00:00:15;6.00;71.30
34644;DHT22;26931;43.498;-1.506;2023-02-28T00:02:42;5.90;71.30
34644;DHT22;26931;43.498;-1.506;2023-02-28T00:05:08;6.10;71.70
34644;DHT22;26931;43.498;-1.506;2023-02-28T00:07:34;6.20;71.90
34644;DHT22;26931;43.498;-1.506;2023-02-28T00:10:00;6.00;71.80
34644;DHT22;26931;43.498;-1.506;2023-02-28T00:12:26;5.90;71.70
34644;DHT22;26931;43.498;-1.506;2023-02-28T00:14:52;5.80;71.70
34644;DHT22;26931;43.498;-1.506;2023-02-28T00:17:19;5.80;71.90
34644;DHT22;26931;43.498;-1.506;2023-02-28T00:19:47;5.90;72.10
34644;DHT22;26931;43.498;-1.506;2023-02-28T00:22:14;5.80;71.90
34644;DHT22;26931;43.498;-1.506;2023-02-28T00:24:40;6.00;71.70
34644;DHT22;26931;43.498;-1.506;2023-02-28T00:27:06;6.00;71.10
34644;DHT22;26931;43.498;-1.506;2023-02-28T00:29:32;6.10;70.90
34644;DHT22;26931;43.498;-1.506;2023-02-28T00:31:58;6.00;70.40
34644;DHT22;26931;43.498;-1.506;2023-02-28T00:34:23;6.10;70.10
34644;DHT22;26931;43.498;-1.506;2023-02-28T00:36:49;6.00;69.60
34644;DHT22;26931;43.498;-1.506;2023-02-28T00:39:15;6.00;69.30
34644;DHT22;26931;43.498;-1.506;2023-02-28T00:41:41;6.00;69.30
34644;DHT22;26931;43.498;-1.506;2023-02-28T00:44:07;5.90;69.20
34644;DHT22;26931;43.498;-1.506;2023-02-28T00:46:32;5.90;69.10
34644;DHT22;26931;43.498;-1.506;2023-02-28T00:48:58;5.80;69.00
34644;DHT22;26931;43.498;-1.506;2023-02-28T00:51:24;5.80;69.10
34644;DHT22;26931;43.498;-1.506;2023-02-28T00:53:50;5.80;69.50
34644;DHT22;26931;43.498;-1.506;2023-02-28T00:56:16;5.80;69.40
34644;DHT22;26931;43.498;-1.506;2023-02-28T00:58:41;5.80;69.30
34644;DHT22;26931;43.498;-1.506;2023-02-28T01:01:08;5.80;69.20
34644;DHT22;26931;43.498;-1.506;2023-02-28T01:03:34;5.90;69.40
34644;DHT22;26931;43.498;-1.506;2023-02-28T01:06:00;5.70;69.40
34644;DHT22;26931;43.498;-1.506;2023-02-28T01:08:26;5.70;69.40
34644;DHT22;26931;43.498;-1.506;2023-02-28T01:10:52;5.70;69.70
34644;DHT22;26931;43.498;-1.506;2023-02-28T01:13:18;5.60;70.00
34644;DHT22;26931;43.498;-1.506;2023-02-28T01:15:46;5.60;70.20
34644;DHT22;26931;43.498;-1.506;2023-02-28T01:18:16;5.50;70.30
34644;DHT22;26931;43.498;-1.506;2023-02-28T01:20:42;5.50;70.70
34644;DHT22;26931;43.498;-1.506;2023-02-28T01:23:08;5.50;70.90
34644;DHT22;26931;43.498;-1.506;2023-02-28T01:25:34;5.20;70.90
34644;DHT22;26931;43.498;-1.506;2023-02-28T01:28:00;5.40;71.40
34644;DHT22;26931;43.498;-1.506;2023-02-28T01:30:26;5.30;71.60
34644;DHT22;26931;43.498;-1.506;2023-02-28T01:32:52;5.30;71.60
34644;DHT22;26931;43.498;-1.506;2023-02-28T01:35:19;5.20;71.90
34644;DHT22;26931;43.498;-1.506;2023-02-28T01:37:44;5.30;72.20
34644;DHT22;26931;43.498;-1.506;2023-02-28T01:40:10;5.30;72.10
34644;DHT22;26931;43.498;-1.506;2023-02-28T01:42:37;5.20;72.40
34644;DHT22;26931;43.498;-1.506;2023-02-28T01:45:35;5.10;72.40
34644;DHT22;26931;43.498;-1.506;2023-02-28T01:47:55;5.30;72.60
34644;DHT22;26931;43.498;-1.506;2023-02-28T01:50:25;5.60;72.60
34644;DHT22;26931;43.498;-1.506;2023-02-28T01:52:51;5.40;72.40
34644;DHT22;26931;43.498;-1.506;2023-02-28T01:55:20;5.40;72.30
34644;DHT22;26931;43.498;-1.506;2023-02-28T01:57:52;5.40;72.30
34644;DHT22;26931;43.498;-1.506;2023-02-28T02:00:21;5.40;72.00
34644;DHT22;26931;43.498;-1.506;2023-02-28T02:02:49;5.40;72.00
34644;DHT22;26931;43.498;-1.506;2023-02-28T02:05:17;5.40;72.00
34644;DHT22;26931;43.498;-1.506;2023-02-28T02:07:44;5.40;71.90
34644;DHT22;26931;43.498;-1.506;2023-02-28T02:15:24;5.50;71.90
34644;DHT22;26931;43.498;-1.506;2023-02-28T02:17:52;5.40;71.80
34644;DHT22;26931;43.498;-1.506;2023-02-28T02:23:03;5.40;71.80
34644;DHT22;26931;43.498;-1.506;2023-02-28T02:25:40;5.50;71.80
34644;DHT22;26931;43.498;-1.506;2023-02-28T02:36:04;5.50;71.30
34644;DHT22;26931;43.498;-1.506;2023-02-28T02:41:14;5.50;71.30
34644;DHT22;26931;43.498;-1.506;2023-02-28T02:43:58;5.40;71.50
34644;DHT22;26931;43.498;-1.506;2023-02-28T02:46:38;5.40;71.60
34644;DHT22;26931;43.498;-1.506;2023-02-28T02:49:06;5.50;71.80
34644;DHT22;26931;43.498;-1.506;2023-02-28T02:51:33;5.50;71.70
34644;DHT22;26931;43.498;-1.506;2023-02-28T02:56:28;5.50;71.80
34644;DHT22;26931;43.498;-1.506;2023-02-28T02:58:57;5.50;71.90
34644;DHT22;26931;43.498;-1.506;2023-02-28T03:01:25;5.50;71.90
34644;DHT22;26931;43.498;-1.506;2023-02-28T03:04:07;5.60;72.10
34644;DHT22;26931;43.498;-1.506;2023-02-28T03:06:33;5.50;72.10
34644;DHT22;26931;43.498;-1.506;2023-02-28T03:09:00;5.50;72.40
34644;DHT22;26931;43.498;-1.506;2023-02-28T03:11:26;5.50;72.50
34644;DHT22;26931;43.498;-1.506;2023-02-28T03:16:42;5.60;72.10
34644;DHT22;26931;43.498;-1.506;2023-02-28T03:26:58;5.80;72.50
34644;DHT22;26931;43.498;-1.506;2023-02-28T03:29:37;5.70;72.40
34644;DHT22;26931;43.498;-1.506;2023-02-28T03:35:07;5.80;72.40
34644;DHT22;26931;43.498;-1.506;2023-02-28T03:37:35;5.60;72.10
34644;DHT22;26931;43.498;-1.506;2023-02-28T03:40:04;5.70;72.00
34644;DHT22;26931;43.498;-1.506;2023-02-28T03:42:34;5.70;72.20
34644;DHT22;26931;43.498;-1.506;2023-02-28T03:45:02;5.70;72.10
34644;DHT22;26931;43.498;-1.506;2023-02-28T03:47:38;5.70;72.40
34644;DHT22;26931;43.498;-1.506;2023-02-28T03:50:13;5.70;72.40
34644;DHT22;26931;43.498;-1.506;2023-02-28T03:52:42;5.80;72.30
34644;DHT22;26931;43.498;-1.506;2023-02-28T03:55:11;5.60;71.90
34644;DHT22;26931;43.498;-1.506;2023-02-28T03:57:40;5.90;72.00
34644;DHT22;26931;43.498;-1.506;2023-02-28T04:00:12;5.80;72.30
34644;DHT22;26931;43.498;-1.506;2023-02-28T04:02:39;5.80;72.50
34644;DHT22;26931;43.498;-1.506;2023-02-28T04:05:06;5.90;72.20
34644;DHT22;26931;43.498;-1.506;2023-02-28T04:07:32;5.90;72.20
34644;DHT22;26931;43.498;-1.506;2023-02-28T04:09:58;5.90;72.10
34644;DHT22;26931;43.498;-1.506;2023-02-28T04:12:24;5.90;72.10
34644;DHT22;26931;43.498;-1.506;2023-02-28T04:14:50;6.00;72.10
34644;DHT22;26931;43.498;-1.506;2023-02-28T04:17:16;6.10;71.90
34644;DHT22;26931;43.498;-1.506;2023-02-28T04:19:42;6.00;71.80
34644;DHT22;26931;43.498;-1.506;2023-02-28T04:22:08;6.10;71.80
34644;DHT22;26931;43.498;-1.506;2023-02-28T04:24:34;6.10;72.60
34644;DHT22;26931;43.498;-1.506;2023-02-28T04:27:00;6.10;71.70
34644;DHT22;26931;43.498;-1.506;2023-02-28T04:29:27;6.10;71.90
34644;DHT22;26931;43.498;-1.506;2023-02-28T04:31:53;6.10;71.90
34644;DHT22;26931;43.498;-1.506;2023-02-28T04:34:20;6.10;72.00
34644;DHT22;26931;43.498;-1.506;2023-02-28T04:36:46;6.10;72.00
34644;DHT22;26931;43.498;-1.506;2023-02-28T04:39:15;6.10;72.10
34644;DHT22;26931;43.498;-1.506;2023-02-28T04:41:41;6.10;72.10
34644;DHT22;26931;43.498;-1.506;2023-02-28T04:44:07;6.10;72.00
34644;DHT22;26931;43.498;-1.506;2023-02-28T04:46:32;6.10;72.00
34644;DHT22;26931;43.498;-1.506;2023-02-28T04:48:58;6.10;72.00
34644;DHT22;26931;43.498;-1.506;2023-02-28T04:51:24;6.10;72.20
34644;DHT22;26931;43.498;-1.506;2023-02-28T04:53:50;6.10;72.20
34644;DHT22;26931;43.498;-1.506;2023-02-28T04:56:17;6.10;72.30
34644;DHT22;26931;43.498;-1.506;2023-02-28T04:58:43;6.10;72.40
34644;DHT22;26931;43.498;-1.506;2023-02-28T05:03:44;6.10;72.70
34644;DHT22;26931;43.498;-1.506;2023-02-28T05:06:10;6.10;72.50
34644;DHT22;26931;43.498;-1.506;2023-02-28T05:08:36;6.10;72.60
34644;DHT22;26931;43.498;-1.506;2023-02-28T05:11:02;6.00;72.60
34644;DHT22;26931;43.498;-1.506;2023-02-28T05:13:28;6.00;72.80
34644;DHT22;26931;43.498;-1.506;2023-02-28T05:15:54;5.90;73.00
34644;DHT22;26931;43.498;-1.506;2023-02-28T05:18:20;6.10;73.30
34644;DHT22;26931;43.498;-1.506;2023-02-28T05:20:46;5.80;73.30
34644;DHT22;26931;43.498;-1.506;2023-02-28T05:23:12;6.00;73.70
34644;DHT22;26931;43.498;-1.506;2023-02-28T05:25:39;5.80;73.50
34644;DHT22;26931;43.498;-1.506;2023-02-28T05:28:05;5.70;73.70
34644;DHT22;26931;43.498;-1.506;2023-02-28T05:30:31;5.70;73.60
34644;DHT22;26931;43.498;-1.506;2023-02-28T05:32:57;5.70;73.70
34644;DHT22;26931;43.498;-1.506;2023-02-28T05:35:23;5.90;73.90
34644;DHT22;26931;43.498;-1.506;2023-02-28T05:37:49;5.70;73.90
34644;DHT22;26931;43.498;-1.506;2023-02-28T05:40:16;5.70;73.90
34644;DHT22;26931;43.498;-1.506;2023-02-28T05:42:42;5.70;74.10
34644;DHT22;26931;43.498;-1.506;2023-02-28T05:45:08;5.60;74.20
34644;DHT22;26931;43.498;-1.506;2023-02-28T05:47:34;5.60;74.40
34644;DHT22;26931;43.498;-1.506;2023-02-28T05:50:00;5.60;74.50
34644;DHT22;26931;43.498;-1.506;2023-02-28T05:52:26;5.60;74.40
34644;DHT22;26931;43.498;-1.506;2023-02-28T05:54:52;5.50;74.60
34644;DHT22;26931;43.498;-1.506;2023-02-28T05:57:18;5.50;74.80
34644;DHT22;26931;43.498;-1.506;2023-02-28T05:59:44;5.50;74.80
34644;DHT22;26931;43.498;-1.506;2023-02-28T06:02:13;5.80;75.00
34644;DHT22;26931;43.498;-1.506;2023-02-28T06:04:40;5.60;74.90
34644;DHT22;26931;43.498;-1.506;2023-02-28T06:07:07;5.80;75.00
34644;DHT22;26931;43.498;-1.506;2023-02-28T06:09:32;5.50;74.90
34644;DHT22;26931;43.498;-1.506;2023-02-28T06:11:59;5.50;75.60
34644;DHT22;26931;43.498;-1.506;2023-02-28T06:14:25;5.40;75.00
34644;DHT22;26931;43.498;-1.506;2023-02-28T06:16:51;5.50;75.30
34644;DHT22;26931;43.498;-1.506;2023-02-28T06:19:17;5.50;75.50
34644;DHT22;26931;43.498;-1.506;2023-02-28T06:21:43;5.50;75.60
34644;DHT22;26931;43.498;-1.506;2023-02-28T06:24:09;5.50;75.50
34644;DHT22;26931;43.498;-1.506;2023-02-28T06:26:35;5.40;75.60
34644;DHT22;26931;43.498;-1.506;2023-02-28T06:29:01;5.40;76.20
34644;DHT22;26931;43.498;-1.506;2023-02-28T06:31:27;5.40;75.80
34644;DHT22;26931;43.498;-1.506;2023-02-28T06:33:54;5.40;75.80
34644;DHT22;26931;43.498;-1.506;2023-02-28T06:36:20;5.40;75.90
34644;DHT22;26931;43.498;-1.506;2023-02-28T06:38:46;5.40;75.80
34644;DHT22;26931;43.498;-1.506;2023-02-28T06:41:17;5.40;75.60
34644;DHT22;26931;43.498;-1.506;2023-02-28T06:43:43;5.40;75.90
34644;DHT22;26931;43.498;-1.506;2023-02-28T06:46:10;5.50;75.90
34644;DHT22;26931;43.498;-1.506;2023-02-28T06:48:37;5.50;75.90
34644;DHT22;26931;43.498;-1.506;2023-02-28T06:51:07;5.30;75.70
34644;DHT22;26931;43.498;-1.506;2023-02-28T06:53:33;5.50;75.90
34644;DHT22;26931;43.498;-1.506;2023-02-28T06:55:59;5.50;76.00
34644;DHT22;26931;43.498;-1.506;2023-02-28T06:58:29;5.60;76.00
34644;DHT22;26931;43.498;-1.506;2023-02-28T07:00:55;5.50;76.00
34644;DHT22;26931;43.498;-1.506;2023-02-28T07:03:21;5.60;76.20
34644;DHT22;26931;43.498;-1.506;2023-02-28T07:05:48;5.60;76.20
34644;DHT22;26931;43.498;-1.506;2023-02-28T07:08:14;5.60;76.20
34644;DHT22;26931;43.498;-1.506;2023-02-28T07:10:40;5.60;75.90
34644;DHT22;26931;43.498;-1.506;2023-02-28T07:13:06;5.60;76.00
34644;DHT22;26931;43.498;-1.506;2023-02-28T07:15:32;5.60;76.00
34644;DHT22;26931;43.498;-1.506;2023-02-28T07:17:58;5.60;76.00
34644;DHT22;26931;43.498;-1.506;2023-02-28T07:20:24;5.70;75.90
34644;DHT22;26931;43.498;-1.506;2023-02-28T07:22:50;5.70;76.00
34644;DHT22;26931;43.498;-1.506;2023-02-28T07:25:25;5.70;76.00
34644;DHT22;26931;43.498;-1.506;2023-02-28T07:27:51;5.70;76.00
34644;DHT22;26931;43.498;-1.506;2023-02-28T07:30:17;5.60;75.80
34644;DHT22;26931;43.498;-1.506;2023-02-28T07:32:43;5.70;75.90
34644;DHT22;26931;43.498;-1.506;2023-02-28T07:35:09;6.00;75.90
34644;DHT22;26931;43.498;-1.506;2023-02-28T07:37:34;5.80;75.80
34644;DHT22;26931;43.498;-1.506;2023-02-28T07:40:06;5.80;76.00
34644;DHT22;26931;43.498;-1.506;2023-02-28T07:42:37;5.80;76.10
34644;DHT22;26931;43.498;-1.506;2023-02-28T07:45:03;5.70;75.80
34644;DHT22;26931;43.498;-1.506;2023-02-28T07:47:30;5.70;76.00
34644;DHT22;26931;43.498;-1.506;2023-02-28T07:49:56;6.00;76.30
34644;DHT22;26931;43.498;-1.506;2023-02-28T07:52:22;5.80;76.00
34644;DHT22;26931;43.498;-1.506;2023-02-28T07:54:51;5.80;76.20
34644;DHT22;26931;43.498;-1.506;2023-02-28T07:57:17;5.90;76.10
34644;DHT22;26931;43.498;-1.506;2023-02-28T07:59:43;5.90;76.20
34644;DHT22;26931;43.498;-1.506;2023-02-28T08:02:16;5.90;76.10
34644;DHT22;26931;43.498;-1.506;2023-02-28T08:04:42;5.90;77.00
34644;DHT22;26931;43.498;-1.506;2023-02-28T08:07:08;5.90;76.20
34644;DHT22;26931;43.498;-1.506;2023-02-28T08:09:35;5.90;76.90
34644;DHT22;26931;43.498;-1.506;2023-02-28T08:12:01;5.90;76.00
34644;DHT22;26931;43.498;-1.506;2023-02-28T08:14:26;6.00;76.00
34644;DHT22;26931;43.498;-1.506;2023-02-28T08:16:52;6.00;75.80
34644;DHT22;26931;43.498;-1.506;2023-02-28T08:19:18;6.00;75.50
34644;DHT22;26931;43.498;-1.506;2023-02-28T08:21:44;6.10;75.20
34644;DHT22;26931;43.498;-1.506;2023-02-28T08:24:10;6.20;74.40
34644;DHT22;26931;43.498;-1.506;2023-02-28T08:26:36;6.40;73.80
34644;DHT22;26931;43.498;-1.506;2023-02-28T08:29:02;6.50;73.30
34644;DHT22;26931;43.498;-1.506;2023-02-28T08:31:27;6.20;72.50
34644;DHT22;26931;43.498;-1.506;2023-02-28T08:33:53;6.20;72.00
34644;DHT22;26931;43.498;-1.506;2023-02-28T08:36:22;6.20;71.70
34644;DHT22;26931;43.498;-1.506;2023-02-28T08:38:49;6.20;71.40
34644;DHT22;26931;43.498;-1.506;2023-02-28T08:41:14;6.30;70.90
34644;DHT22;26931;43.498;-1.506;2023-02-28T08:43:40;6.20;70.60
34644;DHT22;26931;43.498;-1.506;2023-02-28T08:46:07;6.30;70.50
34644;DHT22;26931;43.498;-1.506;2023-02-28T08:48:34;6.10;70.20
34644;DHT22;26931;43.498;-1.506;2023-02-28T08:51:01;6.30;70.10
34644;DHT22;26931;43.498;-1.506;2023-02-28T08:53:27;6.30;69.80
34644;DHT22;26931;43.498;-1.506;2023-02-28T08:55:57;6.40;69.80
34644;DHT22;26931;43.498;-1.506;2023-02-28T08:58:23;6.40;69.70
34644;DHT22;26931;43.498;-1.506;2023-02-28T09:00:50;6.30;69.40
34644;DHT22;26931;43.498;-1.506;2023-02-28T09:03:16;6.50;69.30
34644;DHT22;26931;43.498;-1.506;2023-02-28T09:05:51;6.70;69.00
34644;DHT22;26931;43.498;-1.506;2023-02-28T09:08:17;6.60;68.60
34644;DHT22;26931;43.498;-1.506;2023-02-28T09:10:43;6.60;68.40
34644;DHT22;26931;43.498;-1.506;2023-02-28T09:13:09;6.70;68.40
34644;DHT22;26931;43.498;-1.506;2023-02-28T09:15:36;6.70;68.00
34644;DHT22;26931;43.498;-1.506;2023-02-28T09:18:02;6.70;67.90
34644;DHT22;26931;43.498;-1.506;2023-02-28T09:20:28;6.60;67.10
34644;DHT22;26931;43.498;-1.506;2023-02-28T09:22:54;6.70;66.70
34644;DHT22;26931;43.498;-1.506;2023-02-28T09:25:20;6.70;66.40
34644;DHT22;26931;43.498;-1.506;2023-02-28T09:27:46;6.70;66.20
34644;DHT22;26931;43.498;-1.506;2023-02-28T09:30:12;6.70;66.00
34644;DHT22;26931;43.498;-1.506;2023-02-28T09:32:38;6.70;65.90
34644;DHT22;26931;43.498;-1.506;2023-02-28T09:35:04;6.60;65.80
34644;DHT22;26931;43.498;-1.506;2023-02-28T09:37:30;6.70;66.60
34644;DHT22;26931;43.498;-1.506;2023-02-28T09:39:56;6.70;65.70
34644;DHT22;26931;43.498;-1.506;2023-02-28T09:42:30;6.70;66.00
34644;DHT22;26931;43.498;-1.506;2023-02-28T09:44:56;6.80;66.10
34644;DHT22;26931;43.498;-1.506;2023-02-28T09:47:26;6.90;66.10
34644;DHT22;26931;43.498;-1.506;2023-02-28T09:49:55;6.90;65.90
34644;DHT22;26931;43.498;-1.506;2023-02-28T09:52:24;7.00;65.90
34644;DHT22;26931;43.498;-1.506;2023-02-28T09:54:52;7.10;65.70
34644;DHT22;26931;43.498;-1.506;2023-02-28T09:57:36;7.20;65.50
34644;DHT22;26931;43.498;-1.506;2023-02-28T10:03:01;7.30;65.20
34644;DHT22;26931;43.498;-1.506;2023-02-28T10:05:27;7.30;64.90
34644;DHT22;26931;43.498;-1.506;2023-02-28T10:13:00;7.50;64.40
34644;DHT22;26931;43.498;-1.506;2023-02-28T10:15:29;7.50;64.30
34644;DHT22;26931;43.498;-1.506;2023-02-28T10:18:06;7.60;64.10
34644;DHT22;26931;43.498;-1.506;2023-02-28T10:20:37;7.80;64.40
34644;DHT22;26931;43.498;-1.506;2023-02-28T10:23:07;7.60;64.40
34644;DHT22;26931;43.498;-1.506;2023-02-28T10:25:35;7.70;64.30
34644;DHT22;26931;43.498;-1.506;2023-02-28T10:28:09;7.80;64.20
34644;DHT22;26931;43.498;-1.506;2023-02-28T10:33:29;7.90;63.70
34644;DHT22;26931;43.498;-1.506;2023-02-28T10:35:55;8.00;63.60
34644;DHT22;26931;43.498;-1.506;2023-02-28T10:38:25;8.00;64.10
34644;DHT22;26931;43.498;-1.506;2023-02-28T10:40:51;8.00;64.80
34644;DHT22;26931;43.498;-1.506;2023-02-28T10:43:28;8.10;65.30
34644;DHT22;26931;43.498;-1.506;2023-02-28T10:51:05;8.10;65.90
34644;DHT22;26931;43.498;-1.506;2023-02-28T10:53:32;8.10;65.90
34644;DHT22;26931;43.498;-1.506;2023-02-28T10:56:06;8.10;65.60
34644;DHT22;26931;43.498;-1.506;2023-02-28T11:01:16;8.40;64.40
34644;DHT22;26931;43.498;-1.506;2023-02-28T11:03:43;8.10;63.00
34644;DHT22;26931;43.498;-1.506;2023-02-28T11:06:28;8.20;62.20
34644;DHT22;26931;43.498;-1.506;2023-02-28T11:08:56;8.30;61.90
34644;DHT22;26931;43.498;-1.506;2023-02-28T11:11:22;8.30;61.60
34644;DHT22;26931;43.498;-1.506;2023-02-28T11:13:53;8.20;61.10
34644;DHT22;26931;43.498;-1.506;2023-02-28T11:16:24;8.20;60.90
34644;DHT22;26931;43.498;-1.506;2023-02-28T11:18:56;8.20;61.00
34644;DHT22;26931;43.498;-1.506;2023-02-28T11:21:32;8.20;61.30
34644;DHT22;26931;43.498;-1.506;2023-02-28T11:24:04;8.30;61.60
34644;DHT22;26931;43.498;-1.506;2023-02-28T11:26:36;8.30;61.70
34644;DHT22;26931;43.498;-1.506;2023-02-28T11:29:03;8.30;61.90
34644;DHT22;26931;43.498;-1.506;2023-02-28T11:31:34;8.20;62.20
34644;DHT22;26931;43.498;-1.506;2023-02-28T11:34:00;8.30;62.50
34644;DHT22;26931;43.498;-1.506;2023-02-28T11:36:30;8.30;62.60
34644;DHT22;26931;43.498;-1.506;2023-02-28T11:38:59;8.30;62.50
34644;DHT22;26931;43.498;-1.506;2023-02-28T11:46:49;8.40;61.70
34644;DHT22;26931;43.498;-1.506;2023-02-28T11:49:28;8.40;61.50
34644;DHT22;26931;43.498;-1.506;2023-02-28T11:54:28;8.50;60.90
34644;DHT22;26931;43.498;-1.506;2023-02-28T11:59:47;8.40;60.40
34644;DHT22;26931;43.498;-1.506;2023-02-28T12:02:25;8.50;60.30
34644;DHT22;26931;43.498;-1.506;2023-02-28T12:07:31;8.40;60.30
34644;DHT22;26931;43.498;-1.506;2023-02-28T12:15:17;8.40;60.10
34644;DHT22;26931;43.498;-1.506;2023-02-28T12:18:07;8.40;60.00
34644;DHT22;26931;43.498;-1.506;2023-02-28T12:23:10;8.40;60.00
34644;DHT22;26931;43.498;-1.506;2023-02-28T12:25:38;8.40;60.00
34644;DHT22;26931;43.498;-1.506;2023-02-28T12:28:09;8.30;60.00
34644;DHT22;26931;43.498;-1.506;2023-02-28T12:30:38;8.40;59.90
34644;DHT22;26931;43.498;-1.506;2023-02-28T12:33:14;8.30;59.90
34644;DHT22;26931;43.498;-1.506;2023-02-28T12:38:20;8.50;59.90
34644;DHT22;26931;43.498;-1.506;2023-02-28T12:40:49;8.30;59.80
34644;DHT22;26931;43.498;-1.506;2023-02-28T12:43:16;8.50;59.40
34644;DHT22;26931;43.498;-1.506;2023-02-28T12:45:52;8.50;59.10
34644;DHT22;26931;43.498;-1.506;2023-02-28T12:48:41;8.50;58.70
34644;DHT22;26931;43.498;-1.506;2023-02-28T12:51:05;8.50;58.20
34644;DHT22;26931;43.498;-1.506;2023-02-28T12:56:10;8.50;57.90
34644;DHT22;26931;43.498;-1.506;2023-02-28T12:58:43;8.50;57.90
34644;DHT22;26931;43.498;-1.506;2023-02-28T13:03:50;8.40;58.00
34644;DHT22;26931;43.498;-1.506;2023-02-28T13:06:21;8.40;58.10
34644;DHT22;26931;43.498;-1.506;2023-02-28T13:11:23;8.50;58.30
34644;DHT22;26931;43.498;-1.506;2023-02-28T13:13:56;8.50;58.40
34644;DHT22;26931;43.498;-1.506;2023-02-28T13:16:22;8.60;58.50
34644;DHT22;26931;43.498;-1.506;2023-02-28T13:18:48;8.50;58.60
34644;DHT22;26931;43.498;-1.506;2023-02-28T13:21:24;8.50;58.70
34644;DHT22;26931;43.498;-1.506;2023-02-28T13:26:21;8.50;58.70
34644;DHT22;26931;43.498;-1.506;2023-02-28T13:31:16;8.50;58.20
34644;DHT22;26931;43.498;-1.506;2023-02-28T13:38:51;8.40;58.20
34644;DHT22;26931;43.498;-1.506;2023-02-28T13:44:05;8.50;58.40
34644;DHT22;26931;43.498;-1.506;2023-02-28T13:46:32;8.50;58.30
34644;DHT22;26931;43.498;-1.506;2023-02-28T13:51:44;8.40;57.90
34644;DHT22;26931;43.498;-1.506;2023-02-28T13:57:18;8.40;57.80
34644;DHT22;26931;43.498;-1.506;2023-02-28T14:05:12;8.50;58.50
34644;DHT22;26931;43.498;-1.506;2023-02-28T14:07:42;8.50;58.70
34644;DHT22;26931;43.498;-1.506;2023-02-28T14:10:18;8.40;58.70
34644;DHT22;26931;43.498;-1.506;2023-02-28T14:13:00;8.30;58.70
34644;DHT22;26931;43.498;-1.506;2023-02-28T14:17:52;8.40;58.50
34644;DHT22;26931;43.498;-1.506;2023-02-28T14:20:18;8.30;58.30
34644;DHT22;26931;43.498;-1.506;2023-02-28T14:22:57;8.30;58.20
34644;DHT22;26931;43.498;-1.506;2023-02-28T14:33:12;8.40;58.40
34644;DHT22;26931;43.498;-1.506;2023-02-28T14:35:45;8.40;58.40
34644;DHT22;26931;43.498;-1.506;2023-02-28T14:38:33;8.30;58.40
34644;DHT22;26931;43.498;-1.506;2023-02-28T14:41:02;8.30;58.30
34644;DHT22;26931;43.498;-1.506;2023-02-28T14:43:28;8.30;58.10
34644;DHT22;26931;43.498;-1.506;2023-02-28T14:45:55;8.20;58.00
34644;DHT22;26931;43.498;-1.506;2023-02-28T14:48:22;8.30;57.90
34644;DHT22;26931;43.498;-1.506;2023-02-28T14:50:54;8.20;57.90
34644;DHT22;26931;43.498;-1.506;2023-02-28T14:53:21;8.30;58.00
34644;DHT22;26931;43.498;-1.506;2023-02-28T14:55:48;8.30;58.10
34644;DHT22;26931;43.498;-1.506;2023-02-28T14:58:25;8.20;58.20
34644;DHT22;26931;43.498;-1.506;2023-02-28T15:00:52;8.30;58.30
34644;DHT22;26931;43.498;-1.506;2023-02-28T15:05:51;8.30;58.30
34644;DHT22;26931;43.498;-1.506;2023-02-28T15:08:17;8.30;58.50
34644;DHT22;26931;43.498;-1.506;2023-02-28T15:10:56;8.30;58.60
34644;DHT22;26931;43.498;-1.506;2023-02-28T15:13:23;8.30;58.60
34644;DHT22;26931;43.498;-1.506;2023-02-28T15:15:52;8.50;58.70
34644;DHT22;26931;43.498;-1.506;2023-02-28T15:18:30;8.50;58.70
34644;DHT22;26931;43.498;-1.506;2023-02-28T15:20:58;8.30;58.60
34644;DHT22;26931;43.498;-1.506;2023-02-28T15:23:26;8.30;58.60
34644;DHT22;26931;43.498;-1.506;2023-02-28T15:25:52;8.30;58.60
34644;DHT22;26931;43.498;-1.506;2023-02-28T15:28:19;8.20;58.60
34644;DHT22;26931;43.498;-1.506;2023-02-28T15:30:53;8.30;58.70
34644;DHT22;26931;43.498;-1.506;2023-02-28T15:33:20;8.20;58.70
34644;DHT22;26931;43.498;-1.506;2023-02-28T15:35:46;8.20;58.80
34644;DHT22;26931;43.498;-1.506;2023-02-28T15:38:15;8.30;58.80
34644;DHT22;26931;43.498;-1.506;2023-02-28T15:40:42;8.20;58.90
34644;DHT22;26931;43.498;-1.506;2023-02-28T15:45:44;8.30;59.10
34644;DHT22;26931;43.498;-1.506;2023-02-28T15:48:13;8.20;59.10
34644;DHT22;26931;43.498;-1.506;2023-02-28T15:50:40;8.20;59.00
34644;DHT22;26931;43.498;-1.506;2023-02-28T15:53:08;8.20;59.00
34644;DHT22;26931;43.498;-1.506;2023-02-28T15:55:37;8.20;59.10
34644;DHT22;26931;43.498;-1.506;2023-02-28T15:58:03;8.10;59.00
34644;DHT22;26931;43.498;-1.506;2023-02-28T16:00:30;8.10;59.10
34644;DHT22;26931;43.498;-1.506;2023-02-28T16:02:58;8.10;59.20
34644;DHT22;26931;43.498;-1.506;2023-02-28T16:05:25;8.20;59.40
34644;DHT22;26931;43.498;-1.506;2023-02-28T16:07:56;8.20;59.50
34644;DHT22;26931;43.498;-1.506;2023-02-28T16:10:23;8.20;59.60
34644;DHT22;26931;43.498;-1.506;2023-02-28T16:12:52;8.10;59.60
34644;DHT22;26931;43.498;-1.506;2023-02-28T16:15:19;8.10;59.70
34644;DHT22;26931;43.498;-1.506;2023-02-28T16:17:46;8.10;59.70
34644;DHT22;26931;43.498;-1.506;2023-02-28T16:20:33;8.10;59.70
34644;DHT22;26931;43.498;-1.506;2023-02-28T16:22:58;8.10;59.90
34644;DHT22;26931;43.498;-1.506;2023-02-28T16:25:33;8.10;59.90
34644;DHT22;26931;43.498;-1.506;2023-02-28T16:27:59;8.10;60.00
34644;DHT22;26931;43.498;-1.506;2023-02-28T16:30:26;8.00;60.10
34644;DHT22;26931;43.498;-1.506;2023-02-28T16:32:53;8.00;60.30
34644;DHT22;26931;43.498;-1.506;2023-02-28T16:35:20;8.00;60.50
34644;DHT22;26931;43.498;-1.506;2023-02-28T16:37:46;8.00;60.60
34644;DHT22;26931;43.498;-1.506;2023-02-28T16:40:16;8.10;60.80
34644;DHT22;26931;43.498;-1.506;2023-02-28T16:42:42;8.00;61.10
34644;DHT22;26931;43.498;-1.506;2023-02-28T16:45:16;8.10;61.20
34644;DHT22;26931;43.498;-1.506;2023-02-28T16:47:43;8.10;61.30
34644;DHT22;26931;43.498;-1.506;2023-02-28T16:50:14;8.20;61.50
34644;DHT22;26931;43.498;-1.506;2023-02-28T16:52:41;8.10;61.60
34644;DHT22;26931;43.498;-1.506;2023-02-28T16:55:06;8.00;61.60
34644;DHT22;26931;43.498;-1.506;2023-02-28T16:57:32;8.10;61.90
34644;DHT22;26931;43.498;-1.506;2023-02-28T16:59:58;8.10;61.90
34644;DHT22;26931;43.498;-1.506;2023-02-28T17:02:24;8.30;61.90
34644;DHT22;26931;43.498;-1.506;2023-02-28T17:04:50;8.00;61.50
34644;DHT22;26931;43.498;-1.506;2023-02-28T17:07:16;8.00;61.20
34644;DHT22;26931;43.498;-1.506;2023-02-28T17:09:42;8.20;61.40
34644;DHT22;26931;43.498;-1.506;2023-02-28T17:12:08;8.00;61.30
34644;DHT22;26931;43.498;-1.506;2023-02-28T17:14:36;8.00;61.30
34644;DHT22;26931;43.498;-1.506;2023-02-28T17:17:03;8.00;61.30
34644;DHT22;26931;43.498;-1.506;2023-02-28T17:19:29;8.00;61.50
34644;DHT22;26931;43.498;-1.506;2023-02-28T17:21:58;8.00;61.40
34644;DHT22;26931;43.498;-1.506;2023-02-28T17:24:24;8.00;61.30
34644;DHT22;26931;43.498;-1.506;2023-02-28T17:26:50;8.00;61.90
34644;DHT22;26931;43.498;-1.506;2023-02-28T17:29:17;8.00;60.90
34644;DHT22;26931;43.498;-1.506;2023-02-28T17:31:43;7.80;60.90
34644;DHT22;26931;43.498;-1.506;2023-02-28T17:34:09;7.90;61.10
34644;DHT22;26931;43.498;-1.506;2023-02-28T17:36:35;8.00;61.20
34644;DHT22;26931;43.498;-1.506;2023-02-28T17:39:03;7.90;61.20
34644;DHT22;26931;43.498;-1.506;2023-02-28T17:41:29;7.90;61.10